Time;durP1;ratioP1;P1;durP2;ratioP2;P2;SDS_P1;SDS_P2;PMS_P1;PMS_P2;Temp;Humidity;BMP_temperature;BMP_pressure;BME280_temperature;BME280_humidity;BME280_pressure;Samples;Min_cycle;Max_cycle;Signal;HPM_P1;HPM_P2
2022/10/12 00:01:24;;;;;;;0.40;0.40;;;;;;;9.70;68.42;101067.63;5085744;28;20384;-68
2022/10/12 00:03:49;;;;;;;0.60;0.60;;;;;;;9.65;67.95;101051.16;5085753;28;20058;-68
2022/10/12 00:06:23;;;;;;;0.45;0.45;;;;;;;9.75;67.96;101065.94;5067325;28;20055;-67
2022/10/12 00:08:51;;;;;;;0.50;0.50;;;;;;;9.62;68.06;101057.19;5085564;28;20024;-67
2022/10/12 00:11:24;;;;;;;0.40;0.40;;;;;;;9.73;68.14;101077.16;5067579;28;20159;-68
2022/10/12 00:13:49;;;;;;;0.40;0.40;;;;;;;9.70;68.03;101069.34;5085603;28;20032;-67
2022/10/12 00:16:17;;;;;;;0.50;0.50;;;;;;;9.67;68.37;101068.47;5085484;28;20024;-67
2022/10/12 00:18:42;;;;;;;0.40;0.40;;;;;;;9.72;68.45;101076.28;5085318;28;20495;-67
2022/10/12 00:21:11;;;;;;;0.50;0.50;;;;;;;9.75;68.20;101078.00;5085150;28;20029;-67
2022/10/12 00:23:37;;;;;;;0.40;0.40;;;;;;;9.82;67.97;101078.91;5085201;28;20041;-68
2022/10/12 00:26:09;;;;;;;0.60;0.60;;;;;;;9.85;68.02;101081.53;5085386;28;20104;-67
2022/10/12 00:28:35;;;;;;;0.50;0.50;;;;;;;9.85;68.17;101084.13;5085492;28;20020;-68
2022/10/12 00:31:05;;;;;;;0.40;0.40;;;;;;;9.86;67.92;101081.53;5085577;28;20036;-67
2022/10/12 00:33:30;;;;;;;0.40;0.40;;;;;;;9.84;68.00;101090.19;5085365;28;20032;-67
2022/10/12 00:35:55;;;;;;;0.40;0.40;;;;;;;9.87;67.97;101083.25;5067091;28;20028;-67
2022/10/12 00:38:21;;;;;;;0.40;0.40;;;;;;;9.78;68.24;101063.34;5067193;28;20021;-68
2022/10/12 00:40:47;;;;;;;0.40;0.40;;;;;;;9.79;68.17;101064.22;5085317;28;20020;-67
2022/10/12 00:43:33;;;;;;;0.47;0.47;;;;;;;9.84;68.11;101065.09;5085303;28;20028;-67
2022/10/12 00:46:02;;;;;;;0.50;0.50;;;;;;;9.95;68.20;101088.53;5085340;28;20040;-67
2022/10/12 00:48:28;;;;;;;0.40;0.40;;;;;;;9.98;68.37;101079.88;5066976;28;20020;-67
2022/10/12 00:50:54;;;;;;;0.40;0.40;;;;;;;9.92;68.23;101066.00;5084878;28;20036;-67
2022/10/12 00:53:24;;;;;;;0.40;0.40;;;;;;;10.05;68.41;101084.22;5085046;28;20077;-67
2022/10/12 00:55:54;;;;;;;0.40;0.40;;;;;;;10.07;68.31;101089.41;5085160;28;20096;-67
2022/10/12 00:58:20;;;;;;;0.40;0.40;;;;;;;10.07;68.42;101087.69;5084711;28;20346;-67
2022/10/12 01:00:46;;;;;;;0.40;0.40;;;;;;;10.00;68.34;101075.56;5085089;28;20024;-68
2022/10/12 01:03:16;;;;;;;0.75;0.75;;;;;;;9.98;68.36;101072.09;5086317;28;20077;-68
2022/10/12 01:05:41;;;;;;;0.40;0.40;;;;;;;10.08;68.34;101091.16;5088668;28;20088;-67
2022/10/12 01:08:07;;;;;;;0.50;0.50;;;;;;;10.12;68.46;101093.78;5088723;28;20016;-67
2022/10/12 01:10:32;;;;;;;0.50;0.50;;;;;;;10.15;68.34;101093.78;5088810;28;20035;-68
2022/10/12 01:12:59;;;;;;;0.40;0.40;;;;;;;10.06;68.33;101078.19;5088730;28;20032;-67
2022/10/12 01:15:35;;;;;;;38.72;2.67;;;;;;;10.12;68.38;101103.28;5088631;28;20020;-67
2022/10/12 01:18:22;;;;;;;0.40;0.40;;;;;;;10.07;68.68;101100.66;5088471;28;20036;-67
2022/10/12 01:21:15;;;;;;;0.40;0.40;;;;;;;10.07;68.75;101107.56;5088402;28;20052;-67
2022/10/12 01:23:59;;;;;;;0.40;0.40;;;;;;;10.05;68.71;101112.75;5088412;28;20052;-67
2022/10/12 01:26:55;;;;;;;0.40;0.40;;;;;;;10.00;69.03;101114.47;5070595;28;20043;-67
2022/10/12 01:29:51;;;;;;;0.40;0.40;;;;;;;10.08;68.46;101110.19;5070128;28;20228;-67
2022/10/12 01:32:28;;;;;;;0.40;0.40;;;;;;;10.06;68.90;101100.66;5088359;28;20036;-68
2022/10/12 01:35:15;;;;;;;0.50;0.50;;;;;;;10.08;68.70;101101.53;5087951;28;20040;-67
2022/10/12 01:37:43;;;;;;;0.50;0.50;;;;;;;10.09;68.65;101108.47;5088136;28;20028;-68
2022/10/12 01:40:19;;;;;;;0.50;0.50;;;;;;;10.01;68.62;101090.25;5070197;28;20032;-67
2022/10/12 01:42:45;;;;;;;0.50;0.50;;;;;;;10.05;68.78;101104.97;5088336;28;20025;-67
2022/10/12 01:45:14;;;;;;;0.50;0.50;;;;;;;10.05;68.91;101110.16;5088091;28;20028;-67
2022/10/12 01:47:41;;;;;;;0.40;0.40;;;;;;;9.99;68.88;101105.81;5088161;28;20024;-67
2022/10/12 01:50:10;;;;;;;0.40;0.40;;;;;;;9.95;68.93;101114.47;5087826;28;20022;-68
2022/10/12 01:52:45;;;;;;;0.47;0.47;;;;;;;9.90;68.99;101108.38;5088092;28;20024;-67
2022/10/12 01:55:31;;;;;;;0.40;0.40;;;;;;;9.83;69.23;101110.06;5087824;28;20039;-67
2022/10/12 01:58:10;;;;;;;0.40;0.40;;;;;;;9.81;69.10;101103.97;5087772;28;20081;-68
2022/10/12 02:01:06;;;;;;;0.45;0.45;;;;;;;9.75;69.26;101094.44;5087873;28;20111;-68
2022/10/12 02:03:47;;;;;;;0.40;0.40;;;;;;;9.77;69.11;101112.59;5087934;28;20021;-67
2022/10/12 02:06:19;;;;;;;0.40;0.40;;;;;;;9.74;69.47;101104.81;5087668;28;20035;-67
2022/10/12 02:08:58;;;;;;;0.50;0.50;;;;;;;9.73;69.34;101103.09;5087552;28;20027;-68
2022/10/12 02:11:25;;;;;;;0.50;0.50;;;;;;;9.64;69.46;101084.00;5087934;28;20480;-68
2022/10/12 02:14:01;;;;;;;0.50;0.50;;;;;;;9.74;69.52;101107.41;5087253;28;20028;-68
2022/10/12 02:16:32;;;;;;;0.40;0.40;;;;;;;9.69;69.32;101093.53;5087525;28;20020;-68
2022/10/12 02:18:59;;;;;;;0.50;0.50;;;;;;;9.76;69.44;101106.53;5087069;28;20028;-68
2022/10/12 02:21:29;;;;;;;0.40;0.40;;;;;;;9.80;69.12;101097.06;5087445;28;20084;-68
2022/10/12 02:23:58;;;;;;;0.40;0.40;;;;;;;9.85;69.03;101120.44;5059023;28;20069;-68
2022/10/12 02:26:24;;;;;;;0.40;0.40;;;;;;;9.84;69.15;101097.97;5067318;28;20020;-68
2022/10/12 02:28:49;;;;;;;0.40;0.40;;;;;;;9.89;69.18;101114.38;5049107;28;20051;-68
2022/10/12 02:31:20;;;;;;;0.50;0.50;;;;;;;9.96;68.94;101108.41;5067219;28;20021;-68
2022/10/12 02:34:10;;;;;;;0.40;0.40;;;;;;;10.01;69.06;101111.03;5067184;28;20021;-68
2022/10/12 02:36:44;;;;;;;0.40;0.40;;;;;;;10.03;69.06;101110.16;5066874;28;20024;-67
2022/10/12 02:39:24;;;;;;;0.50;0.50;;;;;;;10.08;69.10;101112.78;5066898;28;20025;-68
2022/10/12 02:41:55;;;;;;;0.65;0.65;;;;;;;10.11;68.87;101106.75;5066909;28;20112;-68
2022/10/12 02:44:27;;;;;;;0.50;0.50;;;;;;;10.10;69.38;101107.59;5049115;28;20021;-67
2022/10/12 02:46:54;;;;;;;0.40;0.40;;;;;;;10.14;69.11;101107.59;5066740;28;20101;-68
2022/10/12 02:49:23;;;;;;;0.40;0.40;;;;;;;10.19;69.17;101110.25;5048930;28;20013;-67
2022/10/12 02:51:49;;;;;;;0.45;0.45;;;;;;;10.10;69.48;101095.50;5066821;28;20025;-67
2022/10/12 02:54:14;;;;;;;0.40;0.40;;;;;;;10.16;69.72;101098.13;5066714;28;20168;-67
2022/10/12 02:56:44;;;;;;;0.40;0.40;;;;;;;10.26;70.17;101112.00;5065402;28;20020;-67
2022/10/12 02:59:11;;;;;;;0.40;0.40;;;;;;;10.28;70.17;101112.00;5066716;28;20021;-67
2022/10/12 03:01:36;;;;;;;0.40;0.40;;;;;;;10.37;70.00;101116.34;5066517;28;20028;-66
2022/10/12 03:04:02;;;;;;;0.50;0.50;;;;;;;10.46;69.79;101113.84;5048654;28;20085;-67
2022/10/12 03:06:27;;;;;;;0.50;0.50;;;;;;;10.52;69.99;101116.47;5066504;28;20055;-67
2022/10/12 03:08:55;;;;;;;0.50;0.50;;;;;;;10.56;70.34;101119.91;5066328;28;20021;-67
2022/10/12 03:11:21;;;;;;;0.40;0.40;;;;;;;10.56;70.58;101111.28;5048420;28;20036;-67
2022/10/12 03:13:47;;;;;;;0.40;0.40;;;;;;;10.53;71.48;101102.59;5066832;28;20021;-67
2022/10/12 03:16:12;;;;;;;0.45;0.45;;;;;;;10.59;71.16;101104.34;5066528;28;20021;-67
2022/10/12 03:18:38;;;;;;;1.85;0.85;;;;;;;10.57;71.38;101100.91;5064755;28;20032;-67
2022/10/12 03:21:04;;;;;;;0.40;0.40;;;;;;;10.71;71.60;101110.44;5065937;28;20048;-66
2022/10/12 03:23:30;;;;;;;0.40;0.40;;;;;;;10.72;71.92;101110.44;5066009;28;20106;-67
2022/10/12 03:25:55;;;;;;;0.40;0.40;;;;;;;10.72;72.42;101109.59;5064123;28;20024;-67
2022/10/12 03:28:21;;;;;;;0.40;0.40;;;;;;;10.75;72.82;101114.78;5065885;28;20029;-67
2022/10/12 03:30:46;;;;;;;3.03;1.30;;;;;;;10.75;73.03;101120.00;5048266;28;20021;-67
2022/10/12 03:33:12;;;;;;;0.40;0.40;;;;;;;10.78;73.53;101128.63;5066180;28;20017;-67
2022/10/12 03:35:37;;;;;;;0.40;0.40;;;;;;;10.80;73.93;101120.84;5048170;28;20388;-67
2022/10/12 03:38:03;;;;;;;4.30;1.80;;;;;;;10.88;73.66;101131.25;5065887;28;20021;-67
2022/10/12 03:40:28;;;;;;;0.40;0.40;;;;;;;10.89;73.61;101120.00;5065983;28;20095;-67
2022/10/12 03:42:54;;;;;;;0.40;0.40;;;;;;;10.89;74.00;101118.25;5066106;28;20496;-67
2022/10/12 03:45:19;;;;;;;0.40;0.40;;;;;;;10.90;74.29;101125.22;5065947;28;20549;-67
2022/10/12 03:47:45;;;;;;;0.40;0.40;;;;;;;10.90;75.07;101127.81;5065729;28;20023;-67
2022/10/12 03:50:10;;;;;;;1.73;1.63;;;;;;;10.90;74.62;101130.41;5065505;28;20041;-67
2022/10/12 03:52:35;;;;;;;0.40;0.40;;;;;;;10.90;75.17;101125.22;5065802;28;20013;-66
2022/10/12 03:55:01;;;;;;;0.40;0.40;;;;;;;10.87;75.69;101125.19;5065601;28;20033;-66
2022/10/12 03:57:26;;;;;;;0.40;0.40;;;;;;;10.76;76.44;101100.94;5065447;28;20028;-66
2022/10/12 03:59:51;;;;;;;0.40;0.40;;;;;;;10.86;76.79;101126.03;5065420;28;20029;-66
2022/10/12 04:02:17;;;;;;;0.40;0.40;;;;;;;10.88;76.74;101129.53;5065628;28;20078;-67
2022/10/12 04:04:42;;;;;;;0.45;0.45;;;;;;;10.88;76.68;101121.72;5065560;28;20349;-66
2022/10/12 04:07:08;;;;;;;0.40;0.40;;;;;;;10.85;77.03;101121.72;5065629;28;20024;-65
2022/10/12 04:09:33;;;;;;;0.40;0.40;;;;;;;10.82;77.17;101124.31;5065336;28;20021;-64
2022/10/12 04:11:59;;;;;;;0.40;0.40;;;;;;;10.57;77.10;101087.03;5047448;28;20481;-64
2022/10/12 04:14:24;;;;;;;0.40;0.40;;;;;;;10.68;77.74;101116.50;5065416;28;20052;-64
2022/10/12 04:16:52;;;;;;;0.50;0.50;;;;;;;10.61;78.72;101118.22;5065085;28;20199;-65
2022/10/12 04:19:18;;;;;;;0.40;0.40;;;;;;;10.59;78.97;101111.28;5065083;28;20135;-65
2022/10/12 04:21:43;;;;;;;0.60;0.60;;;;;;;10.48;79.28;101106.06;5065085;28;20509;-65
2022/10/12 04:24:08;;;;;;;0.40;0.40;;;;;;;10.53;80.09;101113.00;5065169;28;20045;-66
2022/10/12 04:26:34;;;;;;;0.40;0.40;;;;;;;10.53;80.30;101106.94;5065144;28;20110;-65
2022/10/12 04:28:59;;;;;;;0.40;0.40;;;;;;;10.52;80.86;101113.00;5065214;28;20021;-66
2022/10/12 04:31:24;;;;;;;0.40;0.40;;;;;;;10.52;81.09;101113.00;5065107;28;20034;-68
2022/10/12 04:33:55;;;;;;;0.40;0.40;;;;;;;10.40;81.11;101099.06;5065059;28;20269;-69
2022/10/12 04:36:24;;;;;;;0.30;0.30;;;;;;;10.38;81.83;101097.34;5065068;28;20032;-66
2022/10/12 04:38:49;;;;;;;0.40;0.40;;;;;;;10.31;82.78;101090.38;5067658;28;20067;-64
2022/10/12 04:41:15;;;;;;;0.40;0.40;;;;;;;10.38;83.48;101118.94;5069452;28;20025;-64
2022/10/12 04:43:40;;;;;;;0.40;0.40;;;;;;;10.36;84.18;101115.50;5069211;28;20511;-64
2022/10/12 04:46:06;;;;;;;0.50;0.50;;;;;;;10.29;84.11;101106.81;5051083;28;20020;-64
2022/10/12 04:48:31;;;;;;;0.40;0.40;;;;;;;10.39;83.82;101125.03;5069117;28;20521;-63
2022/10/12 04:50:57;;;;;;;0.40;0.40;;;;;;;10.40;83.85;101132.81;5050987;28;20025;-63
2022/10/12 04:53:22;;;;;;;0.40;0.40;;;;;;;10.41;83.84;101136.28;5068942;28;20027;-63
2022/10/12 04:55:47;;;;;;;0.50;0.50;;;;;;;10.31;84.20;101116.34;5068897;28;20024;-63
2022/10/12 04:58:13;;;;;;;0.40;0.40;;;;;;;10.44;84.09;101136.31;5068666;28;20040;-67
2022/10/12 05:00:38;;;;;;;1.05;1.05;;;;;;;10.41;83.78;101137.13;5068906;28;20401;-65
2022/10/12 05:03:04;;;;;;;0.40;0.40;;;;;;;10.38;84.22;101139.72;5068883;28;20028;-65
2022/10/12 05:05:30;;;;;;;0.50;0.50;;;;;;;10.43;84.13;101133.69;5068366;28;20381;-65
2022/10/12 05:07:55;;;;;;;0.55;0.55;;;;;;;10.45;83.81;101135.44;5068269;28;20032;-65
2022/10/12 05:10:20;;;;;;;0.40;0.40;;;;;;;10.43;84.38;101138.88;5068893;28;20044;-65
2022/10/12 05:12:46;;;;;;;0.40;0.40;;;;;;;10.44;84.50;101143.22;5068891;28;20109;-65
2022/10/12 05:15:11;;;;;;;1.02;1.02;;;;;;;10.41;84.44;101134.53;5068632;28;20491;-65
2022/10/12 05:17:37;;;;;;;0.40;0.40;;;;;;;10.35;83.95;101121.53;5068354;28;20021;-67
2022/10/12 05:20:03;;;;;;;0.40;0.40;;;;;;;10.46;84.17;101145.00;5067576;28;20021;-64
2022/10/12 05:22:30;;;;;;;0.40;0.40;;;;;;;10.46;83.60;101137.22;5067228;28;20112;-65
2022/10/12 05:24:55;;;;;;;0.40;0.40;;;;;;;10.47;83.38;101143.25;5068452;28;20048;-65
2022/10/12 05:27:21;;;;;;;0.40;0.40;;;;;;;10.45;83.83;101140.63;5050381;28;20020;-65
2022/10/12 05:29:47;;;;;;;0.50;0.50;;;;;;;10.45;84.00;101142.38;5068451;28;20025;-65
2022/10/12 05:32:12;;;;;;;0.40;0.40;;;;;;;10.48;84.13;101142.41;5068206;28;20021;-65
2022/10/12 05:34:37;;;;;;;0.40;0.40;;;;;;;10.51;84.14;101143.25;5068456;28;20028;-64
2022/10/12 05:37:03;;;;;;;0.40;0.40;;;;;;;10.51;84.26;101147.63;5067775;28;20017;-66
2022/10/12 05:39:28;;;;;;;0.40;0.40;;;;;;;10.56;84.25;101143.28;5068191;28;20025;-66
2022/10/12 05:41:54;;;;;;;0.40;0.40;;;;;;;10.56;84.84;101143.28;5067615;28;20029;-66
2022/10/12 05:44:20;;;;;;;0.40;0.40;;;;;;;10.57;84.81;101146.75;5067223;28;20032;-66
2022/10/12 05:46:45;;;;;;;0.40;0.40;;;;;;;10.50;84.47;101130.28;5067103;28;20029;-66
2022/10/12 05:49:11;;;;;;;0.40;0.40;;;;;;;10.57;84.97;101145.03;5066136;28;20073;-67
2022/10/12 05:51:37;;;;;;;0.40;0.40;;;;;;;10.57;85.75;101142.44;5066847;28;20021;-64
2022/10/12 05:54:03;;;;;;;0.40;0.40;;;;;;;10.50;85.56;101131.16;5066758;28;20040;-65
2022/10/12 05:56:29;;;;;;;0.40;0.40;;;;;;;10.61;86.02;101149.38;5048944;28;20057;-65
2022/10/12 05:58:54;;;;;;;0.40;0.40;;;;;;;10.63;86.02;101142.47;5048883;28;20033;-67
2022/10/12 06:01:19;;;;;;;0.50;0.50;;;;;;;10.65;86.25;101140.72;5066851;28;20021;-65
2022/10/12 06:03:45;;;;;;;0.40;0.40;;;;;;;10.53;86.45;101127.69;5065611;28;20051;-66
2022/10/12 06:06:10;;;;;;;0.40;0.40;;;;;;;10.60;86.42;101149.38;5066483;28;20067;-65
2022/10/12 06:08:35;;;;;;;0.40;0.40;;;;;;;10.58;86.76;101140.69;5066528;28;20021;-65
2022/10/12 06:11:02;;;;;;;0.50;0.50;;;;;;;10.53;86.45;101130.28;5066572;28;20036;-65
2022/10/12 06:13:27;;;;;;;0.70;0.70;;;;;;;10.61;86.51;101141.56;5066571;28;20025;-66
2022/10/12 06:15:53;;;;;;;0.40;0.40;;;;;;;10.52;86.10;101133.75;5066470;28;20082;-66
2022/10/12 06:18:18;;;;;;;0.40;0.40;;;;;;;10.60;86.33;101147.66;5066312;28;20027;-66
2022/10/12 06:20:48;;;;;;;0.35;0.35;;;;;;;10.62;86.33;101147.66;5066164;28;20055;-66
2022/10/12 06:23:14;;;;;;;0.40;0.40;;;;;;;10.65;85.95;101145.91;5070602;28;20059;-66
2022/10/12 06:25:40;;;;;;;0.40;0.40;;;;;;;10.68;86.20;101150.25;5068323;28;20103;-67
2022/10/12 06:28:05;;;;;;;2.30;1.60;;;;;;;10.66;86.05;101147.66;5086380;28;20013;-66
2022/10/12 06:30:30;;;;;;;0.40;0.40;;;;;;;10.57;86.08;101134.66;5086435;28;20063;-66
2022/10/12 06:32:56;;;;;;;0.40;0.40;;;;;;;10.62;86.01;101140.69;5086305;28;20538;-66
2022/10/12 06:35:21;;;;;;;0.40;0.40;;;;;;;10.63;86.23;101134.66;5067770;28;20028;-67
2022/10/12 06:37:50;;;;;;;0.32;0.32;;;;;;;10.74;86.47;101149.41;5067791;28;20023;-67
2022/10/12 06:40:19;;;;;;;0.40;0.40;;;;;;;10.75;86.43;101146.81;5086145;28;20020;-66
2022/10/12 06:42:44;;;;;;;0.47;0.47;;;;;;;10.80;86.75;101141.63;5085927;28;20099;-66
2022/10/12 06:45:10;;;;;;;0.40;0.40;;;;;;;10.80;86.80;101149.41;5085996;28;20020;-66
2022/10/12 06:47:35;;;;;;;0.40;0.40;;;;;;;10.73;86.62;101125.19;5085732;28;20025;-67
2022/10/12 06:50:01;;;;;;;0.40;0.40;;;;;;;10.84;86.76;101145.97;5067682;28;20542;-67
2022/10/12 06:52:26;;;;;;;0.40;0.40;;;;;;;10.79;86.93;101134.69;5085973;28;20095;-67
2022/10/12 06:54:51;;;;;;;0.40;0.40;;;;;;;10.89;87.38;101153.78;5067857;28;20073;-67
2022/10/12 06:57:17;;;;;;;0.40;0.40;;;;;;;10.94;87.18;101146.00;5067534;28;20031;-67
2022/10/12 06:59:42;;;;;;;0.40;0.40;;;;;;;10.98;87.16;101150.31;5085465;28;20029;-67
2022/10/12 07:02:10;;;;;;;0.40;0.40;;;;;;;11.01;87.13;101153.81;5085182;28;20055;-67
2022/10/12 07:04:35;;;;;;;0.40;0.40;;;;;;;11.03;86.98;101153.81;5085626;28;20146;-68
2022/10/12 07:07:00;;;;;;;0.40;0.40;;;;;;;11.06;86.72;101156.41;5085351;28;20684;-67
2022/10/12 07:09:26;;;;;;;0.40;0.40;;;;;;;11.11;86.77;101159.88;5085315;28;20032;-67
2022/10/12 07:11:51;;;;;;;0.38;0.38;;;;;;;11.13;86.44;101160.72;5085283;28;20030;-67
2022/10/12 07:14:16;;;;;;;0.30;0.30;;;;;;;11.07;86.55;101150.34;5085327;28;20020;-67
2022/10/12 07:16:42;;;;;;;0.30;0.30;;;;;;;11.19;85.96;101146.03;5085276;28;20069;-66
2022/10/12 07:19:07;;;;;;;0.40;0.40;;;;;;;11.28;86.16;101164.22;5085157;28;20044;-66
2022/10/12 07:21:32;;;;;;;0.40;0.40;;;;;;;11.26;86.10;101148.63;5067136;28;20133;-67
2022/10/12 07:23:58;;;;;;;0.40;0.40;;;;;;;11.32;85.85;101152.97;5066994;28;20045;-66
2022/10/12 07:26:23;;;;;;;1.83;1.75;;;;;;;11.46;85.75;101160.78;5085305;28;20020;-66
2022/10/12 07:28:48;;;;;;;0.40;0.40;;;;;;;11.46;85.60;101146.91;5085294;28;20043;-67
2022/10/12 07:31:14;;;;;;;0.40;0.40;;;;;;;11.54;85.23;101147.78;5085181;28;20524;-67
2022/10/12 07:33:39;;;;;;;0.30;0.30;;;;;;;11.67;85.19;101160.75;5085175;28;20028;-67
2022/10/12 07:36:06;;;;;;;1.40;1.30;;;;;;;11.74;84.57;101154.69;5084727;28;20055;-66
2022/10/12 07:38:32;;;;;;;0.40;0.40;;;;;;;11.82;84.12;101152.09;5066715;28;20059;-68
2022/10/12 07:41:02;;;;;;;0.30;0.30;;;;;;;11.84;83.90;101161.59;5085008;28;20028;-67
2022/10/12 07:43:28;;;;;;;0.40;0.40;;;;;;;11.89;83.67;101156.41;5067053;28;20025;-67
2022/10/12 07:45:54;;;;;;;0.40;0.40;;;;;;;11.92;83.62;101151.19;5085019;28;20074;-68
2022/10/12 07:48:20;;;;;;;0.30;0.30;;;;;;;12.06;83.69;101166.75;5084781;28;20028;-67
2022/10/12 07:50:45;;;;;;;0.30;0.30;;;;;;;12.12;82.98;101161.56;5084610;28;20021;-67
2022/10/12 07:53:11;;;;;;;0.30;0.30;;;;;;;12.12;82.63;101152.91;5084739;28;20050;-67
2022/10/12 07:55:36;;;;;;;0.40;0.40;;;;;;;12.31;82.24;101166.75;5084712;28;20036;-67
2022/10/12 07:58:02;;;;;;;0.40;0.40;;;;;;;12.38;81.81;101168.44;5084671;28;20021;-67
2022/10/12 08:00:28;;;;;;;0.30;0.30;;;;;;;12.38;81.44;101152.81;5066897;28;20107;-67
2022/10/12 08:02:53;;;;;;;0.40;0.40;;;;;;;12.56;81.02;101170.97;5084715;28;20032;-68
2022/10/12 08:05:20;;;;;;;0.65;0.65;;;;;;;12.54;80.79;101155.34;5084500;28;20422;-66
2022/10/12 08:07:47;;;;;;;0.30;0.30;;;;;;;12.60;79.94;101175.31;5084577;28;20055;-67
2022/10/12 08:10:12;;;;;;;0.40;0.40;;;;;;;12.48;79.74;101158.84;5083254;28;20040;-67
2022/10/12 08:12:38;;;;;;;0.40;0.40;;;;;;;12.55;79.95;101175.34;5084293;28;20036;-67
2022/10/12 08:15:04;;;;;;;0.40;0.40;;;;;;;12.61;79.91;101174.44;5084457;28;20028;-68
2022/10/12 08:17:29;;;;;;;0.40;0.40;;;;;;;12.67;80.02;101165.72;5084197;28;20043;-66
2022/10/12 08:19:54;;;;;;;0.52;0.52;;;;;;;12.67;80.07;101173.53;5066096;28;20092;-68
2022/10/12 08:22:20;;;;;;;0.45;0.45;;;;;;;12.74;79.65;101183.06;5084412;28;20024;-67
2022/10/12 08:24:45;;;;;;;0.40;0.40;;;;;;;12.76;79.11;101191.75;5084133;28;20045;-67
2022/10/12 08:27:10;;;;;;;0.40;0.40;;;;;;;12.63;79.11;101173.56;5084455;28;20170;-67
2022/10/12 08:29:36;;;;;;;0.40;0.40;;;;;;;12.57;78.87;101183.97;5066294;28;20023;-66
2022/10/12 08:32:01;;;;;;;0.40;0.40;;;;;;;12.68;78.76;101194.38;5066166;28;20025;-67
2022/10/12 08:34:29;;;;;;;0.40;0.40;;;;;;;12.61;78.64;101201.34;5066310;28;20024;-67
2022/10/12 08:36:55;;;;;;;0.40;0.40;;;;;;;12.54;78.47;101194.41;5066031;28;20028;-68
2022/10/12 08:39:20;;;;;;;3.72;2.90;;;;;;;12.58;78.70;101203.09;5084252;28;20428;-67
2022/10/12 08:42:04;;;;;;;0.40;0.40;;;;;;;12.52;78.60;101198.78;5084229;28;20396;-67
2022/10/12 08:44:41;;;;;;;0.40;0.40;;;;;;;12.44;78.59;101196.22;5084249;28;20040;-68
2022/10/12 08:47:32;;;;;;;0.40;0.40;;;;;;;12.30;78.54;101185.81;5084404;28;20021;-68
2022/10/12 08:50:01;;;;;;;0.95;0.95;;;;;;;12.38;78.80;101199.69;5084477;28;20021;-68
2022/10/12 08:52:32;;;;;;;0.40;0.40;;;;;;;12.30;78.71;101185.81;5083976;28;20017;-67
2022/10/12 08:55:04;;;;;;;0.40;0.40;;;;;;;12.25;78.64;101183.22;5084283;28;20044;-67
2022/10/12 08:57:29;;;;;;;0.50;0.50;;;;;;;12.34;78.99;101195.38;5066095;28;20036;-67
2022/10/12 08:59:55;;;;;;;0.40;0.40;;;;;;;12.28;79.09;101198.00;5084156;28;20111;-67
2022/10/12 09:02:32;;;;;;;0.40;0.40;;;;;;;12.23;79.19;101200.63;5084258;28;20027;-67
2022/10/12 09:05:00;;;;;;;0.40;0.40;;;;;;;12.25;79.36;101206.66;5084114;28;20035;-67
2022/10/12 09:07:29;;;;;;;0.30;0.30;;;;;;;12.33;79.19;101197.97;5065678;28;20028;-67
2022/10/12 09:10:37;;;;;;;0.40;0.40;;;;;;;12.35;79.39;101199.69;5083956;28;20534;-67
2022/10/12 09:13:27;;;;;;;0.88;0.88;;;;;;;12.49;79.18;101209.22;5084114;28;20021;-67
2022/10/12 09:16:24;;;;;;;0.40;0.40;;;;;;;12.56;78.97;101192.69;5084031;28;20029;-67
2022/10/12 09:18:56;;;;;;;2.28;2.15;;;;;;;12.87;78.57;101204.72;5079896;28;20029;-67
2022/10/12 09:21:25;;;;;;;4.53;3.53;;;;;;;12.97;78.10;101192.50;5065751;28;20024;-67
2022/10/12 09:23:53;;;;;;;0.40;0.40;;;;;;;13.36;77.21;101211.34;5084730;28;20040;-67
2022/10/12 09:26:33;;;;;;;0.30;0.30;;;;;;;13.77;76.56;101210.22;5087473;28;20020;-67
2022/10/12 09:28:59;;;;;;;0.30;0.30;;;;;;;13.91;74.93;101192.69;5069518;28;20051;-68
2022/10/12 09:31:52;;;;;;;0.35;0.35;;;;;;;14.21;73.46;101203.69;5087676;28;20020;-68
2022/10/12 09:34:18;;;;;;;0.30;0.30;;;;;;;14.13;72.56;101190.72;5087540;28;20048;-68
2022/10/12 09:36:43;;;;;;;0.30;0.30;;;;;;;14.11;73.19;101192.47;5086972;28;20047;-68
2022/10/12 09:39:20;;;;;;;0.30;0.30;;;;;;;14.44;73.20;101209.53;5087212;28;20441;-68
2022/10/12 09:41:47;;;;;;;3.72;3.40;;;;;;;14.84;72.01;101201.22;5087404;28;20114;-68
2022/10/12 09:44:44;;;;;;;0.30;0.30;;;;;;;15.58;69.49;101206.22;5069202;28;20024;-68
2022/10/12 09:47:23;;;;;;;0.30;0.30;;;;;;;16.29;65.62;101205.88;5069196;28;20020;-68
2022/10/12 09:49:57;;;;;;;0.30;0.30;;;;;;;16.44;64.77;101209.06;5087312;28;20052;-68
2022/10/12 09:52:35;;;;;;;0.30;0.30;;;;;;;17.26;63.59;101213.47;5086860;28;20443;-67
2022/10/12 09:55:22;;;;;;;0.30;0.30;;;;;;;17.82;62.86;101207.72;5068950;28;20029;-67
2022/10/12 09:57:55;;;;;;;0.30;0.30;;;;;;;18.35;59.85;101207.22;5085717;28;20614;-68
2022/10/12 10:00:34;;;;;;;0.30;0.30;;;;;;;18.23;59.18;101208.44;5087018;28;20043;-68
2022/10/12 10:03:01;;;;;;;0.30;0.30;;;;;;;17.59;59.12;101214.41;5086863;28;20465;-68
2022/10/12 10:05:37;;;;;;;0.30;0.30;;;;;;;16.80;59.06;101210.97;5086702;28;20024;-68
2022/10/12 10:08:20;;;;;;;0.30;0.30;;;;;;;16.65;60.40;101209.50;5086850;28;20154;-67
2022/10/12 10:10:51;;;;;;;0.30;0.30;;;;;;;16.30;61.08;101199.72;5068584;28;20040;-67
2022/10/12 10:13:18;;;;;;;0.40;0.40;;;;;;;16.64;62.52;101210.41;5086775;28;20017;-67
2022/10/12 10:15:48;;;;;;;0.60;0.60;;;;;;;16.75;62.20;101189.22;5086747;28;20029;-69
2022/10/12 10:18:26;;;;;;;0.30;0.30;;;;;;;17.01;62.18;101209.63;5086445;28;20082;-68
2022/10/12 10:20:54;;;;;;;0.30;0.30;;;;;;;17.15;61.18;101217.22;5086599;28;20103;-68
2022/10/12 10:23:26;;;;;;;2.85;2.40;;;;;;;17.76;58.26;101210.50;5086089;28;20048;-69
2022/10/12 10:26:06;;;;;;;0.40;0.40;;;;;;;17.56;57.96;101219.75;5068393;28;20044;-67
2022/10/12 10:28:37;;;;;;;0.30;0.30;;;;;;;17.45;58.35;101217.38;5068228;28;20538;-69
2022/10/12 10:31:05;;;;;;;0.30;0.30;;;;;;;17.70;57.44;101201.00;5086802;28;20135;-69
2022/10/12 10:33:33;;;;;;;0.30;0.30;;;;;;;17.58;56.98;101222.31;5086199;28;20082;-69
2022/10/12 10:36:03;;;;;;;0.30;0.30;;;;;;;16.97;58.14;101218.44;5085931;28;20027;-69
2022/10/12 10:38:32;;;;;;;0.30;0.30;;;;;;;16.66;59.10;101224.38;5067785;28;20549;-67
2022/10/12 10:41:00;;;;;;;0.30;0.30;;;;;;;16.42;60.06;101211.72;5086102;28;20697;-67
2022/10/12 10:43:29;;;;;;;0.30;0.30;;;;;;;16.13;60.38;101210.53;5086065;28;20024;-67
2022/10/12 10:46:02;;;;;;;0.30;0.30;;;;;;;15.82;60.78;101201.47;5086016;28;20036;-68
2022/10/12 10:48:32;;;;;;;0.30;0.30;;;;;;;15.46;60.77;101204.66;5067735;28;20021;-68
2022/10/12 10:51:03;;;;;;;0.30;0.30;;;;;;;15.15;61.33;101209.50;5085857;28;20043;-67
2022/10/12 10:53:43;;;;;;;0.40;0.40;;;;;;;14.93;62.13;101205.47;5085380;28;20021;-67
2022/10/12 10:56:16;;;;;;;0.30;0.30;;;;;;;14.83;62.36;101209.94;5085763;28;20119;-67
2022/10/12 10:58:50;;;;;;;0.98;0.55;;;;;;;14.90;62.40;101202.88;5085741;28;20090;-67
2022/10/12 11:01:22;;;;;;;0.65;0.65;;;;;;;14.87;61.54;101202.94;5067838;28;20101;-67
2022/10/12 11:04:01;;;;;;;0.30;0.30;;;;;;;14.71;61.64;101205.69;5085683;28;20023;-67
2022/10/12 11:06:36;;;;;;;0.30;0.30;;;;;;;14.51;62.64;101208.56;5085490;28;20025;-67
2022/10/12 11:09:09;;;;;;;0.30;0.30;;;;;;;14.56;63.80;101198.94;5067450;28;20024;-69
2022/10/12 11:11:36;;;;;;;0.30;0.30;;;;;;;15.13;63.36;101183.38;5085475;28;20032;-67
2022/10/12 11:14:11;;;;;;;0.30;0.30;;;;;;;16.48;61.76;101203.72;5085383;28;20050;-67
2022/10/12 11:17:02;;;;;;;0.22;0.22;;;;;;;17.17;58.82;101199.66;5085236;28;20024;-68
2022/10/12 11:20:05;;;;;;;0.20;0.20;;;;;;;16.93;58.50;101194.03;5075307;28;20032;-67
2022/10/12 11:22:43;;;;;;;0.30;0.30;;;;;;;16.44;59.20;101190.72;5084475;28;20029;-67
2022/10/12 11:25:12;;;;;;;0.30;0.30;;;;;;;16.20;58.69;101196.44;5085104;28;20104;-67
2022/10/12 11:27:40;;;;;;;0.30;0.30;;;;;;;15.84;58.60;101196.19;5067115;28;20044;-67
2022/10/12 11:30:16;;;;;;;0.30;0.30;;;;;;;15.53;58.63;101196.72;5084882;28;20044;-67
2022/10/12 11:32:47;;;;;;;0.30;0.30;;;;;;;15.24;59.64;101183.19;5084587;28;20032;-68
2022/10/12 11:35:26;;;;;;;0.30;0.30;;;;;;;15.14;59.64;101189.47;5084918;28;20058;-68
2022/10/12 11:38:00;;;;;;;0.30;0.30;;;;;;;15.02;60.39;101194.00;5084039;28;20035;-68